sensor_id;sensor_type;location;lat;lon;timestamp;pressure;altitude;pressure_sealevel;temperature;humidity
52983;BME280;48698;45.736;13.926;2024-01-07T00:03:58;95618.97;;;4.84;100.00
52983;BME280;48698;45.736;13.926;2024-01-07T00:09:19;95794.69;;;5.80;100.00
52983;BME280;48698;45.736;13.926;2024-01-07T00:14:23;95575.28;;;4.39;100.00
52983;BME280;48698;45.736;13.926;2024-01-07T00:19:27;95871.31;;;6.05;100.00
52983;BME280;48698;45.736;13.926;2024-01-07T00:24:30;95894.44;;;6.14;100.00
52983;BME280;48698;45.736;13.926;2024-01-07T00:29:34;95802.84;;;5.61;100.00
52983;BME280;48698;45.736;13.926;2024-01-07T00:34:38;95877.50;;;6.04;100.00
52983;BME280;48698;45.736;13.926;2024-01-07T00:39:42;95870.00;;;5.98;100.00
52983;BME280;48698;45.736;13.926;2024-01-07T00:44:47;95893.25;;;6.19;100.00
52983;BME280;48698;45.736;13.926;2024-01-07T00:49:50;95863.59;;;5.88;100.00
52983;BME280;48698;45.736;13.926;2024-01-07T00:54:53;95906.88;;;6.12;100.00
52983;BME280;48698;45.736;13.926;2024-01-07T00:59:57;95917.25;;;6.15;100.00
52983;BME280;48698;45.736;13.926;2024-01-07T01:05:00;95905.13;;;5.83;100.00
52983;BME280;48698;45.736;13.926;2024-01-07T01:10:05;95923.63;;;6.11;100.00
52983;BME280;48698;45.736;13.926;2024-01-07T01:15:09;95881.22;;;5.71;100.00
52983;BME280;48698;45.736;13.926;2024-01-07T01:20:12;95927.50;;;5.76;100.00
52983;BME280;48698;45.736;13.926;2024-01-07T01:25:16;95851.56;;;5.24;100.00
52983;BME280;48698;45.736;13.926;2024-01-07T01:30:19;95941.38;;;5.63;100.00
52983;BME280;48698;45.736;13.926;2024-01-07T01:35:23;95669.34;;;4.03;100.00
52983;BME280;48698;45.736;13.926;2024-01-07T01:40:26;95846.38;;;5.08;100.00
52983;BME280;48698;45.736;13.926;2024-01-07T01:45:30;95939.88;;;5.59;100.00
52983;BME280;48698;45.736;13.926;2024-01-07T01:50:33;95949.56;;;5.59;100.00
52983;BME280;48698;45.736;13.926;2024-01-07T01:55:37;95925.94;;;5.43;100.00
52983;BME280;48698;45.736;13.926;2024-01-07T02:00:40;95882.78;;;5.16;100.00
52983;BME280;48698;45.736;13.926;2024-01-07T02:05:44;95941.84;;;5.56;100.00
52983;BME280;48698;45.736;13.926;2024-01-07T02:10:48;95870.34;;;5.18;100.00
52983;BME280;48698;45.736;13.926;2024-01-07T02:15:51;95839.09;;;4.98;100.00
52983;BME280;48698;45.736;13.926;2024-01-07T02:20:55;95904.09;;;5.41;100.00
52983;BME280;48698;45.736;13.926;2024-01-07T02:25:58;95866.84;;;5.33;100.00
52983;BME280;48698;45.736;13.926;2024-01-07T02:31:02;95786.84;;;4.46;100.00
52983;BME280;48698;45.736;13.926;2024-01-07T02:36:06;95907.97;;;5.20;100.00
52983;BME280;48698;45.736;13.926;2024-01-07T02:41:10;95943.06;;;5.35;100.00
52983;BME280;48698;45.736;13.926;2024-01-07T02:46:14;95933.41;;;5.35;100.00
52983;BME280;48698;45.736;13.926;2024-01-07T02:51:17;95940.47;;;5.19;100.00
52983;BME280;48698;45.736;13.926;2024-01-07T02:56:21;95925.03;;;4.97;100.00
52983;BME280;48698;45.736;13.926;2024-01-07T03:01:24;95882.13;;;4.81;100.00
52983;BME280;48698;45.736;13.926;2024-01-07T03:06:28;95947.78;;;5.30;100.00
52983;BME280;48698;45.736;13.926;2024-01-07T03:11:31;95933.16;;;5.40;100.00
52983;BME280;48698;45.736;13.926;2024-01-07T03:16:35;95907.56;;;5.12;100.00
52983;BME280;48698;45.736;13.926;2024-01-07T03:21:39;95945.16;;;5.44;100.00
52983;BME280;48698;45.736;13.926;2024-01-07T03:26:43;95932.28;;;5.39;100.00
52983;BME280;48698;45.736;13.926;2024-01-07T03:31:46;95743.31;;;4.27;100.00
52983;BME280;48698;45.736;13.926;2024-01-07T03:36:50;95860.69;;;5.18;100.00
52983;BME280;48698;45.736;13.926;2024-01-07T03:41:55;95906.09;;;5.52;100.00
52983;BME280;48698;45.736;13.926;2024-01-07T03:46:59;95845.94;;;5.16;100.00
52983;BME280;48698;45.736;13.926;2024-01-07T03:52:02;95793.38;;;4.85;100.00
52983;BME280;48698;45.736;13.926;2024-01-07T03:57:06;95911.28;;;5.67;100.00
52983;BME280;48698;45.736;13.926;2024-01-07T04:02:09;95831.44;;;5.53;100.00
52983;BME280;48698;45.736;13.926;2024-01-07T04:07:15;95890.78;;;5.58;100.00
52983;BME280;48698;45.736;13.926;2024-01-07T04:12:18;95903.50;;;5.66;100.00
52983;BME280;48698;45.736;13.926;2024-01-07T04:17:23;95885.78;;;5.54;100.00
52983;BME280;48698;45.736;13.926;2024-01-07T04:22:26;95831.41;;;5.39;100.00
52983;BME280;48698;45.736;13.926;2024-01-07T04:27:30;95850.81;;;5.52;100.00
52983;BME280;48698;45.736;13.926;2024-01-07T04:32:33;95907.56;;;5.71;100.00
52983;BME280;48698;45.736;13.926;2024-01-07T04:37:37;95853.81;;;5.46;100.00
52983;BME280;48698;45.736;13.926;2024-01-07T04:42:41;95862.31;;;5.65;100.00
52983;BME280;48698;45.736;13.926;2024-01-07T04:47:45;95823.97;;;5.31;100.00
52983;BME280;48698;45.736;13.926;2024-01-07T04:52:48;95805.56;;;5.01;100.00
52983;BME280;48698;45.736;13.926;2024-01-07T04:57:52;95781.03;;;5.01;100.00
52983;BME280;48698;45.736;13.926;2024-01-07T05:02:55;95830.19;;;5.44;100.00
52983;BME280;48698;45.736;13.926;2024-01-07T05:07:59;95889.41;;;5.81;100.00
52983;BME280;48698;45.736;13.926;2024-01-07T05:13:03;95829.41;;;5.28;100.00
52983;BME280;48698;45.736;13.926;2024-01-07T05:18:09;95878.38;;;5.60;100.00
52983;BME280;48698;45.736;13.926;2024-01-07T05:23:13;95803.72;;;5.03;100.00
52983;BME280;48698;45.736;13.926;2024-01-07T05:28:16;95901.06;;;5.77;100.00
52983;BME280;48698;45.736;13.926;2024-01-07T05:33:23;95856.34;;;5.47;100.00
52983;BME280;48698;45.736;13.926;2024-01-07T05:38:27;95884.47;;;6.05;100.00
52983;BME280;48698;45.736;13.926;2024-01-07T05:43:36;95907.63;;;6.28;100.00
52983;BME280;48698;45.736;13.926;2024-01-07T05:48:44;95901.50;;;6.13;100.00
52983;BME280;48698;45.736;13.926;2024-01-07T05:53:47;95855.97;;;5.97;100.00
52983;BME280;48698;45.736;13.926;2024-01-07T05:58:51;95874.88;;;6.18;100.00
52983;BME280;48698;45.736;13.926;2024-01-07T06:03:55;95780.56;;;5.38;100.00
52983;BME280;48698;45.736;13.926;2024-01-07T06:08:59;95806.88;;;5.38;100.00
52983;BME280;48698;45.736;13.926;2024-01-07T06:14:03;95846.09;;;6.01;100.00
52983;BME280;48698;45.736;13.926;2024-01-07T06:19:06;95895.78;;;5.77;100.00
52983;BME280;48698;45.736;13.926;2024-01-07T06:24:10;95911.59;;;6.21;100.00
52983;BME280;48698;45.736;13.926;2024-01-07T06:29:14;95868.47;;;6.08;100.00
52983;BME280;48698;45.736;13.926;2024-01-07T06:34:17;95651.47;;;4.97;100.00
52983;BME280;48698;45.736;13.926;2024-01-07T06:39:21;95895.38;;;6.55;100.00
52983;BME280;48698;45.736;13.926;2024-01-07T06:44:24;95802.81;;;5.91;100.00
52983;BME280;48698;45.736;13.926;2024-01-07T06:49:28;95872.03;;;6.49;100.00
52983;BME280;48698;45.736;13.926;2024-01-07T06:54:31;95898.09;;;6.68;100.00
52983;BME280;48698;45.736;13.926;2024-01-07T06:59:35;95904.41;;;6.65;100.00
52983;BME280;48698;45.736;13.926;2024-01-07T07:04:38;95880.16;;;6.46;100.00
52983;BME280;48698;45.736;13.926;2024-01-07T07:09:43;95892.50;;;6.32;100.00
52983;BME280;48698;45.736;13.926;2024-01-07T07:14:46;95832.34;;;5.96;100.00
52983;BME280;48698;45.736;13.926;2024-01-07T07:19:50;95942.28;;;6.50;100.00
52983;BME280;48698;45.736;13.926;2024-01-07T07:24:53;95941.72;;;6.45;100.00
52983;BME280;48698;45.736;13.926;2024-01-07T07:30:00;95863.69;;;5.86;100.00
52983;BME280;48698;45.736;13.926;2024-01-07T07:35:04;95941.34;;;6.23;100.00
52983;BME280;48698;45.736;13.926;2024-01-07T07:40:08;95948.88;;;6.29;100.00
52983;BME280;48698;45.736;13.926;2024-01-07T07:45:11;95938.34;;;6.29;100.00
52983;BME280;48698;45.736;13.926;2024-01-07T07:50:15;95984.28;;;6.67;100.00
52983;BME280;48698;45.736;13.926;2024-01-07T07:55:19;95950.56;;;6.58;100.00
52983;BME280;48698;45.736;13.926;2024-01-07T08:00:23;95980.59;;;6.84;100.00
52983;BME280;48698;45.736;13.926;2024-01-07T08:05:27;95688.25;;;5.13;100.00
52983;BME280;48698;45.736;13.926;2024-01-07T08:10:31;95886.09;;;6.21;100.00
52983;BME280;48698;45.736;13.926;2024-01-07T08:15:35;95973.25;;;6.47;100.00
52983;BME280;48698;45.736;13.926;2024-01-07T08:20:40;95900.03;;;6.09;100.00
52983;BME280;48698;45.736;13.926;2024-01-07T08:25:44;95961.31;;;6.41;100.00
52983;BME280;48698;45.736;13.926;2024-01-07T08:30:48;95925.31;;;6.40;100.00
52983;BME280;48698;45.736;13.926;2024-01-07T08:35:52;95967.63;;;6.39;100.00
52983;BME280;48698;45.736;13.926;2024-01-07T08:40:56;95919.88;;;6.15;100.00
52983;BME280;48698;45.736;13.926;2024-01-07T08:45:59;95925.34;;;6.12;100.00
52983;BME280;48698;45.736;13.926;2024-01-07T08:51:03;96015.00;;;6.83;100.00
52983;BME280;48698;45.736;13.926;2024-01-07T08:56:06;95918.28;;;6.41;100.00
52983;BME280;48698;45.736;13.926;2024-01-07T09:01:10;96012.91;;;6.88;100.00
52983;BME280;48698;45.736;13.926;2024-01-07T09:06:13;96045.50;;;6.87;100.00
52983;BME280;48698;45.736;13.926;2024-01-07T09:11:19;96008.59;;;6.72;100.00
52983;BME280;48698;45.736;13.926;2024-01-07T09:16:23;95941.34;;;6.23;100.00
52983;BME280;48698;45.736;13.926;2024-01-07T09:21:26;96028.56;;;6.62;100.00
52983;BME280;48698;45.736;13.926;2024-01-07T09:26:30;96036.19;;;6.67;100.00
52983;BME280;48698;45.736;13.926;2024-01-07T09:31:33;96060.22;;;6.62;100.00
52983;BME280;48698;45.736;13.926;2024-01-07T09:36:37;95970.63;;;6.18;100.00
52983;BME280;48698;45.736;13.926;2024-01-07T09:41:41;95969.84;;;6.02;100.00
52983;BME280;48698;45.736;13.926;2024-01-07T09:46:46;95880.81;;;5.49;100.00
52983;BME280;48698;45.736;13.926;2024-01-07T09:51:59;96001.69;;;6.28;100.00
52983;BME280;48698;45.736;13.926;2024-01-07T09:57:05;96062.28;;;6.57;100.00
52983;BME280;48698;45.736;13.926;2024-01-07T10:02:12;95796.50;;;4.91;100.00
52983;BME280;48698;45.736;13.926;2024-01-07T10:07:16;96088.28;;;6.63;100.00
52983;BME280;48698;45.736;13.926;2024-01-07T10:12:24;96086.78;;;6.59;100.00
52983;BME280;48698;45.736;13.926;2024-01-07T10:17:28;96093.94;;;6.71;100.00
52983;BME280;48698;45.736;13.926;2024-01-07T10:22:33;96061.06;;;6.77;100.00
52983;BME280;48698;45.736;13.926;2024-01-07T10:27:36;95938.13;;;5.90;100.00
52983;BME280;48698;45.736;13.926;2024-01-07T10:32:42;96089.78;;;6.67;100.00
52983;BME280;48698;45.736;13.926;2024-01-07T10:37:46;96102.72;;;6.72;100.00
52983;BME280;48698;45.736;13.926;2024-01-07T10:42:51;96022.91;;;6.10;100.00
52983;BME280;48698;45.736;13.926;2024-01-07T10:47:55;96083.81;;;6.50;100.00
52983;BME280;48698;45.736;13.926;2024-01-07T10:53:04;96017.09;;;6.05;100.00
52983;BME280;48698;45.736;13.926;2024-01-07T10:58:10;96088.47;;;6.60;100.00
52983;BME280;48698;45.736;13.926;2024-01-07T11:03:21;96106.56;;;6.66;100.00
52983;BME280;48698;45.736;13.926;2024-01-07T11:08:35;96089.91;;;6.66;100.00
52983;BME280;48698;45.736;13.926;2024-01-07T11:13:39;95788.44;;;4.64;100.00
52983;BME280;48698;45.736;13.926;2024-01-07T11:18:50;96087.06;;;6.55;100.00
52983;BME280;48698;45.736;13.926;2024-01-07T11:23:54;96107.22;;;6.70;100.00
52983;BME280;48698;45.736;13.926;2024-01-07T11:29:00;96109.84;;;6.70;100.00
52983;BME280;48698;45.736;13.926;2024-01-07T11:34:03;95897.75;;;5.30;100.00
52983;BME280;48698;45.736;13.926;2024-01-07T11:39:08;96109.44;;;6.48;100.00
52983;BME280;48698;45.736;13.926;2024-01-07T11:44:13;96117.88;;;6.68;100.00
52983;BME280;48698;45.736;13.926;2024-01-07T11:49:18;95943.25;;;5.61;100.00
52983;BME280;48698;45.736;13.926;2024-01-07T11:54:22;96043.00;;;6.27;100.00
52983;BME280;48698;45.736;13.926;2024-01-07T11:59:25;96101.88;;;6.71;100.00
52983;BME280;48698;45.736;13.926;2024-01-07T12:04:30;96126.28;;;6.75;100.00
52983;BME280;48698;45.736;13.926;2024-01-07T12:09:34;96093.94;;;6.71;100.00
52983;BME280;48698;45.736;13.926;2024-01-07T12:14:38;96107.50;;;6.80;100.00
52983;BME280;48698;45.736;13.926;2024-01-07T12:19:41;96027.63;;;6.49;100.00
52983;BME280;48698;45.736;13.926;2024-01-07T12:24:45;95994.22;;;6.20;100.00
52983;BME280;48698;45.736;13.926;2024-01-07T12:29:57;95809.63;;;5.07;100.00
52983;BME280;48698;45.736;13.926;2024-01-07T12:35:01;96095.09;;;6.96;100.00
52983;BME280;48698;45.736;13.926;2024-01-07T12:40:05;96089.63;;;6.85;100.00
52983;BME280;48698;45.736;13.926;2024-01-07T12:45:13;96055.91;;;6.75;100.00
52983;BME280;48698;45.736;13.926;2024-01-07T12:50:18;96033.47;;;6.68;100.00
52983;BME280;48698;45.736;13.926;2024-01-07T12:55:25;96034.66;;;6.63;100.00
52983;BME280;48698;45.736;13.926;2024-01-07T13:00:31;96002.44;;;6.15;100.00
52983;BME280;48698;45.736;13.926;2024-01-07T13:05:34;96001.31;;;6.19;100.00
52983;BME280;48698;45.736;13.926;2024-01-07T13:10:38;96023.16;;;6.21;100.00
52983;BME280;48698;45.736;13.926;2024-01-07T13:15:42;96022.47;;;6.18;100.00
52983;BME280;48698;45.736;13.926;2024-01-07T13:20:46;96036.72;;;6.30;100.00
52983;BME280;48698;45.736;13.926;2024-01-07T13:25:49;95967.88;;;5.76;100.00
52983;BME280;48698;45.736;13.926;2024-01-07T13:30:53;96074.59;;;6.43;100.00
52983;BME280;48698;45.736;13.926;2024-01-07T13:35:56;95953.22;;;5.56;100.00
52983;BME280;48698;45.736;13.926;2024-01-07T13:41:00;96089.56;;;6.42;100.00
52983;BME280;48698;45.736;13.926;2024-01-07T13:46:08;96091.19;;;6.15;100.00
52983;BME280;48698;45.736;13.926;2024-01-07T13:51:12;96120.91;;;6.33;100.00
52983;BME280;48698;45.736;13.926;2024-01-07T13:56:15;96120.06;;;6.32;100.00
52983;BME280;48698;45.736;13.926;2024-01-07T14:01:19;96124.56;;;6.30;100.00
52983;BME280;48698;45.736;13.926;2024-01-07T14:06:23;96075.88;;;6.21;100.00
52983;BME280;48698;45.736;13.926;2024-01-07T14:11:26;96136.19;;;6.42;100.00
52983;BME280;48698;45.736;13.926;2024-01-07T14:16:31;96113.56;;;6.08;100.00
52983;BME280;48698;45.736;13.926;2024-01-07T14:21:35;96120.72;;;6.06;100.00
52983;BME280;48698;45.736;13.926;2024-01-07T14:26:38;96156.66;;;6.22;100.00
52983;BME280;48698;45.736;13.926;2024-01-07T14:31:42;96169.44;;;5.99;100.00
52983;BME280;48698;45.736;13.926;2024-01-07T14:36:45;96164.16;;;5.99;100.00
52983;BME280;48698;45.736;13.926;2024-01-07T14:41:49;96133.69;;;5.78;100.00
52983;BME280;48698;45.736;13.926;2024-01-07T14:46:52;95891.47;;;4.24;100.00
52983;BME280;48698;45.736;13.926;2024-01-07T14:51:56;96132.50;;;5.67;100.00
52983;BME280;48698;45.736;13.926;2024-01-07T14:56:59;96108.91;;;5.50;100.00
52983;BME280;48698;45.736;13.926;2024-01-07T15:02:03;96116.72;;;5.52;100.00
52983;BME280;48698;45.736;13.926;2024-01-07T15:07:07;96186.25;;;5.96;100.00
52983;BME280;48698;45.736;13.926;2024-01-07T15:12:11;95936.06;;;4.41;100.00
52983;BME280;48698;45.736;13.926;2024-01-07T15:17:14;96085.47;;;5.30;100.00
52983;BME280;48698;45.736;13.926;2024-01-07T15:22:21;96121.56;;;5.44;100.00
52983;BME280;48698;45.736;13.926;2024-01-07T15:27:25;96184.84;;;5.73;100.00
52983;BME280;48698;45.736;13.926;2024-01-07T15:32:31;96192.75;;;5.73;100.00
52983;BME280;48698;45.736;13.926;2024-01-07T15:37:35;96068.63;;;4.86;100.00
52983;BME280;48698;45.736;13.926;2024-01-07T15:42:38;96184.34;;;5.51;100.00
52983;BME280;48698;45.736;13.926;2024-01-07T15:47:46;96226.50;;;5.83;100.00
52983;BME280;48698;45.736;13.926;2024-01-07T15:52:49;96131.72;;;5.18;100.00
52983;BME280;48698;45.736;13.926;2024-01-07T15:57:53;96232.31;;;5.89;100.00
52983;BME280;48698;45.736;13.926;2024-01-07T16:02:57;96239.28;;;5.90;100.00
52983;BME280;48698;45.736;13.926;2024-01-07T16:08:03;96242.22;;;5.68;100.00
52983;BME280;48698;45.736;13.926;2024-01-07T16:13:06;96059.72;;;4.55;100.00
52983;BME280;48698;45.736;13.926;2024-01-07T16:18:10;96134.97;;;4.91;100.00
52983;BME280;48698;45.736;13.926;2024-01-07T16:23:13;96009.88;;;4.04;100.00
52983;BME280;48698;45.736;13.926;2024-01-07T16:28:17;96265.16;;;5.66;100.00
52983;BME280;48698;45.736;13.926;2024-01-07T16:33:21;96276.69;;;5.64;100.00
52983;BME280;48698;45.736;13.926;2024-01-07T16:38:25;96068.03;;;4.31;100.00
52983;BME280;48698;45.736;13.926;2024-01-07T16:43:28;96196.22;;;5.10;100.00
52983;BME280;48698;45.736;13.926;2024-01-07T16:48:35;96186.81;;;5.21;100.00
52983;BME280;48698;45.736;13.926;2024-01-07T16:53:41;96173.34;;;4.95;100.00
52983;BME280;48698;45.736;13.926;2024-01-07T16:58:44;96194.81;;;5.20;100.00
52983;BME280;48698;45.736;13.926;2024-01-07T17:03:48;96263.78;;;5.59;100.00
52983;BME280;48698;45.736;13.926;2024-01-07T17:08:52;96224.19;;;5.28;100.00
52983;BME280;48698;45.736;13.926;2024-01-07T17:13:55;96249.84;;;5.40;100.00
52983;BME280;48698;45.736;13.926;2024-01-07T17:18:59;96214.31;;;5.16;100.00
52983;BME280;48698;45.736;13.926;2024-01-07T17:24:05;96252.34;;;5.43;100.00
52983;BME280;48698;45.736;13.926;2024-01-07T17:29:08;96203.69;;;5.17;100.00
52983;BME280;48698;45.736;13.926;2024-01-07T17:34:13;96257.28;;;5.49;100.00
52983;BME280;48698;45.736;13.926;2024-01-07T17:39:17;96275.78;;;5.81;100.00
52983;BME280;48698;45.736;13.926;2024-01-07T17:44:20;96284.91;;;5.91;100.00
52983;BME280;48698;45.736;13.926;2024-01-07T17:49:24;96258.84;;;5.86;100.00
52983;BME280;48698;45.736;13.926;2024-01-07T17:54:28;96247.09;;;5.92;100.00
52983;BME280;48698;45.736;13.926;2024-01-07T17:59:34;96294.38;;;5.95;100.00
52983;BME280;48698;45.736;13.926;2024-01-07T18:04:40;96208.19;;;5.48;100.00
52983;BME280;48698;45.736;13.926;2024-01-07T18:09:43;96196.41;;;5.55;100.00
52983;BME280;48698;45.736;13.926;2024-01-07T18:14:47;96218.56;;;5.67;100.00
52983;BME280;48698;45.736;13.926;2024-01-07T18:19:52;96277.13;;;5.89;100.00
52983;BME280;48698;45.736;13.926;2024-01-07T18:24:56;96303.38;;;5.91;100.00
52983;BME280;48698;45.736;13.926;2024-01-07T18:30:00;96209.94;;;5.32;100.00
52983;BME280;48698;45.736;13.926;2024-01-07T18:35:03;96308.16;;;6.00;100.00
52983;BME280;48698;45.736;13.926;2024-01-07T18:40:07;96321.41;;;5.98;100.00
52983;BME280;48698;45.736;13.926;2024-01-07T18:45:14;96232.38;;;5.39;100.00
52983;BME280;48698;45.736;13.926;2024-01-07T18:50:18;96231.16;;;5.29;100.00
52983;BME280;48698;45.736;13.926;2024-01-07T18:55:22;96304.91;;;5.78;100.00
52983;BME280;48698;45.736;13.926;2024-01-07T19:00:26;96219.72;;;5.30;100.00
52983;BME280;48698;45.736;13.926;2024-01-07T19:05:31;96339.16;;;5.95;100.00
52983;BME280;48698;45.736;13.926;2024-01-07T19:10:34;96347.53;;;6.03;100.00
52983;BME280;48698;45.736;13.926;2024-01-07T19:15:38;96257.75;;;5.40;100.00
52983;BME280;48698;45.736;13.926;2024-01-07T19:20:43;96088.19;;;4.47;100.00
52983;BME280;48698;45.736;13.926;2024-01-07T19:25:46;96329.88;;;5.70;100.00
52983;BME280;48698;45.736;13.926;2024-01-07T19:30:50;96352.66;;;5.89;100.00
52983;BME280;48698;45.736;13.926;2024-01-07T19:35:56;96247.56;;;5.34;100.00
52983;BME280;48698;45.736;13.926;2024-01-07T19:41:00;96169.13;;;4.58;100.00
52983;BME280;48698;45.736;13.926;2024-01-07T19:46:03;96318.94;;;5.45;100.00
52983;BME280;48698;45.736;13.926;2024-01-07T19:51:07;96302.78;;;5.36;100.00
52983;BME280;48698;45.736;13.926;2024-01-07T19:56:10;96344.66;;;5.23;100.00
52983;BME280;48698;45.736;13.926;2024-01-07T20:01:14;96394.38;;;5.46;100.00
52983;BME280;48698;45.736;13.926;2024-01-07T20:06:18;96315.22;;;4.81;100.00
52983;BME280;48698;45.736;13.926;2024-01-07T20:11:24;96175.63;;;3.81;100.00
52983;BME280;48698;45.736;13.926;2024-01-07T20:16:32;96420.84;;;5.26;100.00
52983;BME280;48698;45.736;13.926;2024-01-07T20:21:36;96362.44;;;5.01;100.00
52983;BME280;48698;45.736;13.926;2024-01-07T20:26:40;96448.88;;;5.44;100.00
52983;BME280;48698;45.736;13.926;2024-01-07T20:31:54;96412.41;;;5.19;100.00
52983;BME280;48698;45.736;13.926;2024-01-07T20:36:57;96344.09;;;4.82;100.00
52983;BME280;48698;45.736;13.926;2024-01-07T20:42:03;96449.19;;;5.55;100.00
52983;BME280;48698;45.736;13.926;2024-01-07T20:47:10;96447.25;;;5.42;100.00
52983;BME280;48698;45.736;13.926;2024-01-07T20:52:13;96464.38;;;5.14;100.00
52983;BME280;48698;45.736;13.926;2024-01-07T20:57:24;96423.50;;;4.72;100.00
52983;BME280;48698;45.736;13.926;2024-01-07T21:02:28;96387.22;;;4.42;100.00
52983;BME280;48698;45.736;13.926;2024-01-07T21:07:32;96218.28;;;3.09;100.00
52983;BME280;48698;45.736;13.926;2024-01-07T21:12:39;96371.03;;;4.14;100.00
52983;BME280;48698;45.736;13.926;2024-01-07T21:17:43;96503.81;;;4.79;100.00
52983;BME280;48698;45.736;13.926;2024-01-07T21:22:47;96426.31;;;4.11;100.00
52983;BME280;48698;45.736;13.926;2024-01-07T21:27:50;96519.75;;;4.57;100.00
52983;BME280;48698;45.736;13.926;2024-01-07T21:32:54;96515.38;;;4.37;100.00
52983;BME280;48698;45.736;13.926;2024-01-07T21:37:57;96473.31;;;4.37;100.00
52983;BME280;48698;45.736;13.926;2024-01-07T21:43:02;96362.22;;;3.57;100.00
52983;BME280;48698;45.736;13.926;2024-01-07T21:48:06;96229.78;;;2.67;100.00
52983;BME280;48698;45.736;13.926;2024-01-07T21:53:09;96410.63;;;3.91;100.00
52983;BME280;48698;45.736;13.926;2024-01-07T21:58:13;96369.41;;;3.52;100.00
52983;BME280;48698;45.736;13.926;2024-01-07T22:03:17;96512.03;;;4.52;100.00
52983;BME280;48698;45.736;13.926;2024-01-07T22:08:21;96457.91;;;4.09;100.00
52983;BME280;48698;45.736;13.926;2024-01-07T22:13:25;96429.34;;;4.02;100.00
52983;BME280;48698;45.736;13.926;2024-01-07T22:18:28;96244.19;;;2.77;100.00
52983;BME280;48698;45.736;13.926;2024-01-07T22:23:32;96568.47;;;4.64;100.00
52983;BME280;48698;45.736;13.926;2024-01-07T22:28:36;96346.63;;;3.14;100.00
52983;BME280;48698;45.736;13.926;2024-01-07T22:33:40;96543.16;;;4.23;100.00
52983;BME280;48698;45.736;13.926;2024-01-07T22:38:44;96543.75;;;4.29;100.00
52983;BME280;48698;45.736;13.926;2024-01-07T22:43:48;96514.09;;;4.07;100.00
52983;BME280;48698;45.736;13.926;2024-01-07T22:48:53;96404.78;;;3.24;100.00
52983;BME280;48698;45.736;13.926;2024-01-07T22:53:56;96596.75;;;4.59;100.00
52983;BME280;48698;45.736;13.926;2024-01-07T22:59:00;96576.59;;;4.59;100.00
52983;BME280;48698;45.736;13.926;2024-01-07T23:04:08;96570.00;;;4.69;100.00
52983;BME280;48698;45.736;13.926;2024-01-07T23:09:12;96533.88;;;4.34;100.00
52983;BME280;48698;45.736;13.926;2024-01-07T23:14:16;96544.31;;;4.56;100.00
52983;BME280;48698;45.736;13.926;2024-01-07T23:19:20;96455.56;;;4.03;100.00
52983;BME280;48698;45.736;13.926;2024-01-07T23:24:23;96551.66;;;4.48;100.00
52983;BME280;48698;45.736;13.926;2024-01-07T23:29:27;96527.22;;;4.27;100.00
52983;BME280;48698;45.736;13.926;2024-01-07T23:34:33;96472.78;;;4.10;100.00
52983;BME280;48698;45.736;13.926;2024-01-07T23:39:37;96310.78;;;2.73;100.00
52983;BME280;48698;45.736;13.926;2024-01-07T23:44:41;96585.03;;;4.47;100.00
52983;BME280;48698;45.736;13.926;2024-01-07T23:49:44;96524.66;;;3.85;100.00
52983;BME280;48698;45.736;13.926;2024-01-07T23:54:48;96462.91;;;3.35;100.00
52983;BME280;48698;45.736;13.926;2024-01-07T23:59:52;96573.69;;;4.05;100.00
